ARG1331 SABE-SACO
Flight info
| Callsign | ARG1331 |
|---|---|
| Flight time | 1h 38m |
| Altitude | 30000 |
| Route | ATOVO4B ATOVO UW5 ASISA ASISA1Q |
| Aircraft | B738/M-SDE2E3FGHIRWXY/LB1 |
Departure
| Time | 2026-05-03 21:34 |
|---|---|
| Airport | Aeroparque Jorge Newbery (SABE) |
Arrival
| Time | 2026-05-03 23:13 |
|---|---|
| Airport | Ingeniero Aeronáutico Ambrosio L.V. Taravella International Airport (SACO) |
| Time | Latitude | Longitude | Altitude | Speed | Heading |
|---|---|---|---|---|---|
| 2026-05-03 20:39 | -34.55919 | -58.41076 | 18 ft | 0 kts | 44° |
| 2026-05-03 20:59 | -34.55930 | -58.41089 | 31 ft | 2 kts | 43° |
| 2026-05-03 21:00 | -34.55943 | -58.41102 | 32 ft | 2 kts | 12° |
| 2026-05-03 21:00 | -34.55953 | -58.41099 | 31 ft | 2 kts | 311° |
| 2026-05-03 21:00 | -34.55956 | -58.41095 | 30 ft | 0 kts | 312° |
| 2026-05-03 21:06 | -34.55949 | -58.41105 | 28 ft | 4 kts | 312° |
| 2026-05-03 21:06 | -34.55921 | -58.41144 | 27 ft | 7 kts | 310° |
| 2026-05-03 21:07 | -34.55887 | -58.41194 | 27 ft | 8 kts | 310° |
| 2026-05-03 21:07 | -34.55856 | -58.41251 | 26 ft | 8 kts | 278° |
| 2026-05-03 21:07 | -34.55894 | -58.41298 | 26 ft | 8 kts | 209° |
| 2026-05-03 21:07 | -34.55929 | -58.41289 | 28 ft | 8 kts | 135° |
| 2026-05-03 21:08 | -34.55976 | -58.41213 | 27 ft | 9 kts | 127° |
| 2026-05-03 21:08 | -34.56019 | -58.41142 | 27 ft | 11 kts | 127° |
| 2026-05-03 21:08 | -34.56065 | -58.41067 | 26 ft | 11 kts | 127° |
| 2026-05-03 21:08 | -34.56110 | -58.40994 | 26 ft | 11 kts | 129° |
| 2026-05-03 21:09 | -34.56140 | -58.40950 | 26 ft | 3 kts | 127° |
| 2026-05-03 21:09 | -34.56144 | -58.40941 | 26 ft | 0 kts | 119° |
| 2026-05-03 21:10 | -34.56149 | -58.40932 | 27 ft | 2 kts | 119° |
| 2026-05-03 21:10 | -34.56155 | -58.40915 | 27 ft | 2 kts | 113° |
| 2026-05-03 21:11 | -34.56159 | -58.40901 | 28 ft | 2 kts | 108° |
| 2026-05-03 21:11 | -34.56160 | -58.40899 | 27 ft | 0 kts | 108° |
| 2026-05-03 21:13 | -34.56161 | -58.40893 | 26 ft | 3 kts | 105° |
| 2026-05-03 21:14 | -34.56156 | -58.40861 | 26 ft | 4 kts | 78° |
| 2026-05-03 21:14 | -34.56156 | -58.40858 | 26 ft | 0 kts | 85° |
| 2026-05-03 21:15 | -34.56156 | -58.40857 | 26 ft | 1 kts | 85° |
| 2026-05-03 21:15 | -34.56157 | -58.40845 | 26 ft | 3 kts | 98° |
| 2026-05-03 21:15 | -34.56173 | -58.40813 | 28 ft | 5 kts | 126° |
| 2026-05-03 21:16 | -34.56187 | -58.40790 | 28 ft | 0 kts | 126° |
| 2026-05-03 21:17 | -34.56191 | -58.40782 | 27 ft | 3 kts | 124° |
| 2026-05-03 21:18 | -34.56212 | -58.40746 | 30 ft | 5 kts | 123° |
| 2026-05-03 21:18 | -34.56216 | -58.40739 | 29 ft | 0 kts | 123° |
| 2026-05-03 21:19 | -34.56222 | -58.40727 | 29 ft | 4 kts | 123° |
| 2026-05-03 21:19 | -34.56245 | -58.40685 | 28 ft | 6 kts | 124° |
| 2026-05-03 21:19 | -34.56253 | -58.40671 | 26 ft | 0 kts | 124° |
| 2026-05-03 21:23 | -34.56254 | -58.40670 | 26 ft | 1 kts | 124° |
| 2026-05-03 21:24 | -34.56263 | -58.40654 | 26 ft | 2 kts | 124° |
| 2026-05-03 21:24 | -34.56264 | -58.40653 | 26 ft | 0 kts | 124° |
| 2026-05-03 21:25 | -34.56267 | -58.40646 | 30 ft | 2 kts | 124° |
| 2026-05-03 21:25 | -34.56279 | -58.40626 | 29 ft | 2 kts | 123° |
| 2026-05-03 21:25 | -34.56283 | -58.40617 | 29 ft | 1 kts | 123° |
| 2026-05-03 21:25 | -34.56290 | -58.40605 | 29 ft | 4 kts | 123° |
| 2026-05-03 21:26 | -34.56304 | -58.40579 | 28 ft | 2 kts | 124° |
| 2026-05-03 21:26 | -34.56307 | -58.40574 | 27 ft | 0 kts | 124° |
| 2026-05-03 21:28 | -34.56309 | -58.40570 | 26 ft | 1 kts | 124° |
| 2026-05-03 21:28 | -34.56319 | -58.40552 | 27 ft | 4 kts | 124° |
| 2026-05-03 21:28 | -34.56348 | -58.40512 | 28 ft | 4 kts | 138° |
| 2026-05-03 21:28 | -34.56362 | -58.40497 | 28 ft | 1 kts | 138° |
| 2026-05-03 21:29 | -34.56368 | -58.40490 | 29 ft | 1 kts | 140° |
| 2026-05-03 21:29 | -34.56369 | -58.40490 | 29 ft | 0 kts | 140° |
| 2026-05-03 21:31 | -34.56419 | -58.40438 | 26 ft | 0 kts | 140° |
| 2026-05-03 21:31 | -34.56426 | -58.40431 | 28 ft | 3 kts | 139° |
| 2026-05-03 21:31 | -34.56432 | -58.40425 | 30 ft | 0 kts | 139° |
| 2026-05-03 21:33 | -34.56562 | -58.40433 | 24 ft | 4 kts | 272° |
| 2026-05-03 21:33 | -34.56549 | -58.40455 | 27 ft | 1 kts | 309° |
| 2026-05-03 21:33 | -34.56545 | -58.40462 | 25 ft | 1 kts | 305° |
| 2026-05-03 21:34 | -34.56494 | -58.40554 | 24 ft | 43 kts | 304° |
| 2026-05-03 21:34 | -34.56179 | -58.41117 | 27 ft | 115 kts | 304° |
| 2026-05-03 21:34 | -34.55633 | -58.42102 | 172 ft | 159 kts | 306° |
| 2026-05-03 21:34 | -34.55043 | -58.43225 | 1027 ft | 159 kts | 304° |
| 2026-05-03 21:35 | -34.54475 | -58.44380 | 1898 ft | 156 kts | 316° |
| 2026-05-03 21:35 | -34.53415 | -58.44890 | 2319 ft | 186 kts | 4° |
| 2026-05-03 21:35 | -34.52121 | -58.44270 | 2587 ft | 215 kts | 22° |
| 2026-05-03 21:35 | -34.50748 | -58.43408 | 3067 ft | 229 kts | 28° |
| 2026-05-03 21:36 | -34.49330 | -58.42338 | 3472 ft | 250 kts | 28° |
| 2026-05-03 21:36 | -34.47843 | -58.41196 | 4193 ft | 260 kts | 29° |
| 2026-05-03 21:36 | -34.46299 | -58.40004 | 5077 ft | 266 kts | 29° |
| 2026-05-03 21:36 | -34.44712 | -58.38780 | 5901 ft | 272 kts | 28° |
| 2026-05-03 21:37 | -34.43091 | -58.37532 | 6703 ft | 279 kts | 28° |
| 2026-05-03 21:37 | -34.41425 | -58.36283 | 7518 ft | 282 kts | 22° |
| 2026-05-03 21:37 | -34.39555 | -58.35697 | 8309 ft | 277 kts | 355° |
| 2026-05-03 21:37 | -34.37704 | -58.36084 | 9160 ft | 272 kts | 335° |
| 2026-05-03 21:38 | -34.36056 | -58.37178 | 10027 ft | 271 kts | 323° |
| 2026-05-03 21:38 | -34.34463 | -58.38469 | 10564 ft | 284 kts | 323° |
| 2026-05-03 21:38 | -34.32587 | -58.39570 | 10738 ft | 315 kts | 337° |
| 2026-05-03 21:38 | -34.30418 | -58.40423 | 10956 ft | 338 kts | 339° |
| 2026-05-03 21:39 | -34.28131 | -58.41264 | 11474 ft | 348 kts | 339° |
| 2026-05-03 21:39 | -34.25792 | -58.42113 | 12152 ft | 352 kts | 339° |
| 2026-05-03 21:39 | -34.23428 | -58.42963 | 12849 ft | 357 kts | 339° |
| 2026-05-03 21:39 | -34.21052 | -58.43813 | 13503 ft | 362 kts | 340° |
| 2026-05-03 21:40 | -34.18614 | -58.44681 | 14125 ft | 367 kts | 339° |
| 2026-05-03 21:40 | -34.16141 | -58.45556 | 14730 ft | 371 kts | 339° |
| 2026-05-03 21:40 | -34.13646 | -58.46432 | 15362 ft | 375 kts | 339° |
| 2026-05-03 21:40 | -34.11153 | -58.47299 | 15969 ft | 379 kts | 339° |
| 2026-05-03 21:41 | -34.08604 | -58.48178 | 16565 ft | 383 kts | 339° |
| 2026-05-03 21:41 | -34.06024 | -58.49061 | 17153 ft | 387 kts | 339° |
| 2026-05-03 21:41 | -34.03409 | -58.49948 | 17726 ft | 392 kts | 339° |
| 2026-05-03 21:41 | -34.00919 | -58.51229 | 18262 ft | 387 kts | 322° |
| 2026-05-03 21:42 | -33.98948 | -58.53376 | 18790 ft | 379 kts | 303° |
| 2026-05-03 21:42 | -33.97679 | -58.56080 | 19339 ft | 374 kts | 287° |
| 2026-05-03 21:42 | -33.97093 | -58.59109 | 19868 ft | 372 kts | 273° |
| 2026-05-03 21:42 | -33.97230 | -58.62215 | 20396 ft | 372 kts | 260° |
| 2026-05-03 21:43 | -33.97711 | -58.65297 | 20934 ft | 374 kts | 258° |
| 2026-05-03 21:43 | -33.98258 | -58.68378 | 21450 ft | 377 kts | 257° |
| 2026-05-03 21:43 | -33.98814 | -58.71448 | 21949 ft | 380 kts | 257° |
| 2026-05-03 21:43 | -33.99370 | -58.74579 | 22446 ft | 382 kts | 257° |
| 2026-05-03 21:44 | -33.99917 | -58.77733 | 22939 ft | 385 kts | 258° |
| 2026-05-03 21:44 | -34.00458 | -58.80914 | 23425 ft | 387 kts | 258° |
| 2026-05-03 21:44 | -34.00992 | -58.84103 | 23858 ft | 389 kts | 258° |
| 2026-05-03 21:44 | -34.01521 | -58.87278 | 24265 ft | 391 kts | 258° |
| 2026-05-03 21:45 | -34.02056 | -58.90507 | 24688 ft | 392 kts | 258° |
| 2026-05-03 21:45 | -34.02590 | -58.93742 | 25103 ft | 394 kts | 258° |
| 2026-05-03 21:45 | -34.03127 | -58.96992 | 25500 ft | 395 kts | 258° |
| 2026-05-03 21:45 | -34.03657 | -59.00212 | 25890 ft | 397 kts | 258° |
| 2026-05-03 21:46 | -34.04197 | -59.03490 | 26381 ft | 395 kts | 258° |
| 2026-05-03 21:46 | -34.04728 | -59.06723 | 26994 ft | 391 kts | 257° |
| 2026-05-03 21:46 | -34.05246 | -59.09946 | 27586 ft | 388 kts | 260° |
| 2026-05-03 21:46 | -34.05251 | -59.13171 | 28051 ft | 393 kts | 276° |
| 2026-05-03 21:47 | -34.04556 | -59.16372 | 28569 ft | 397 kts | 286° |
| 2026-05-03 21:47 | -34.03250 | -59.19343 | 29080 ft | 405 kts | 300° |
| 2026-05-03 21:47 | -34.01495 | -59.22016 | 29596 ft | 407 kts | 303° |
| 2026-05-03 21:47 | -33.99658 | -59.24621 | 30040 ft | 408 kts | 304° |
| 2026-05-03 21:48 | -33.95905 | -59.29871 | 30068 ft | 422 kts | 304° |
| 2026-05-03 21:48 | -33.92044 | -59.35344 | 30077 ft | 434 kts | 304° |
| 2026-05-03 21:49 | -33.88094 | -59.40997 | 30077 ft | 445 kts | 304° |
| 2026-05-03 21:49 | -33.84095 | -59.46725 | 30072 ft | 452 kts | 304° |
| 2026-05-03 21:50 | -33.80042 | -59.52517 | 30057 ft | 452 kts | 304° |
| 2026-05-03 21:50 | -33.76014 | -59.58267 | 30059 ft | 451 kts | 304° |
| 2026-05-03 21:51 | -33.71966 | -59.64040 | 30057 ft | 451 kts | 304° |
| 2026-05-03 21:51 | -33.67919 | -59.69796 | 30057 ft | 451 kts | 304° |
| 2026-05-03 21:52 | -33.63886 | -59.75515 | 30049 ft | 450 kts | 304° |
| 2026-05-03 21:52 | -33.59827 | -59.81261 | 30052 ft | 450 kts | 304° |
| 2026-05-03 21:53 | -33.55764 | -59.87007 | 30060 ft | 450 kts | 304° |
| 2026-05-03 21:53 | -33.51730 | -59.92704 | 30046 ft | 450 kts | 304° |
| 2026-05-03 21:54 | -33.47661 | -59.98441 | 30055 ft | 450 kts | 304° |
| 2026-05-03 21:54 | -33.43622 | -60.04127 | 30046 ft | 450 kts | 304° |
| 2026-05-03 21:55 | -33.39633 | -60.09719 | 30024 ft | 428 kts | 304° |
| 2026-05-03 21:55 | -33.35782 | -60.15121 | 30041 ft | 425 kts | 304° |
| 2026-05-03 21:56 | -33.31964 | -60.20484 | 30045 ft | 427 kts | 304° |
| 2026-05-03 21:56 | -33.28088 | -60.25914 | 30042 ft | 428 kts | 304° |
| 2026-05-03 21:57 | -33.24231 | -60.31303 | 30036 ft | 429 kts | 304° |
| 2026-05-03 21:57 | -33.20344 | -60.36726 | 30034 ft | 429 kts | 304° |
| 2026-05-03 21:58 | -33.16470 | -60.42121 | 30037 ft | 429 kts | 304° |
| 2026-05-03 21:58 | -33.13004 | -60.46943 | 30033 ft | 429 kts | 304° |
| 2026-05-03 21:59 | -33.09116 | -60.52343 | 30037 ft | 429 kts | 304° |
| 2026-05-03 21:59 | -33.05218 | -60.57750 | 30036 ft | 429 kts | 304° |
| 2026-05-03 22:00 | -33.01345 | -60.63115 | 30047 ft | 428 kts | 304° |
| 2026-05-03 22:00 | -32.97447 | -60.68507 | 30049 ft | 428 kts | 304° |
| 2026-05-03 22:01 | -32.93584 | -60.73844 | 30042 ft | 428 kts | 304° |
| 2026-05-03 22:01 | -32.89830 | -60.79320 | 30040 ft | 421 kts | 296° |
| 2026-05-03 22:02 | -32.86873 | -60.85303 | 30044 ft | 418 kts | 294° |
| 2026-05-03 22:02 | -32.83976 | -60.91272 | 30045 ft | 418 kts | 294° |
| 2026-05-03 22:03 | -32.81051 | -60.97237 | 30043 ft | 419 kts | 294° |
| 2026-05-03 22:03 | -32.78097 | -61.03215 | 30033 ft | 419 kts | 294° |
| 2026-05-03 22:04 | -32.75133 | -61.09195 | 30029 ft | 419 kts | 294° |
| 2026-05-03 22:04 | -32.72188 | -61.15123 | 30025 ft | 419 kts | 295° |
| 2026-05-03 22:05 | -32.69226 | -61.21079 | 30025 ft | 419 kts | 295° |
| 2026-05-03 22:05 | -32.66260 | -61.27033 | 30024 ft | 418 kts | 295° |
| 2026-05-03 22:06 | -32.63788 | -61.31990 | 30025 ft | 418 kts | 295° |
| 2026-05-03 22:06 | -32.60334 | -61.38901 | 30024 ft | 418 kts | 295° |
| 2026-05-03 22:07 | -32.57859 | -61.43848 | 30021 ft | 419 kts | 295° |
| 2026-05-03 22:07 | -32.54880 | -61.49791 | 30022 ft | 419 kts | 295° |
| 2026-05-03 22:08 | -32.51907 | -61.55714 | 30022 ft | 419 kts | 295° |
| 2026-05-03 22:08 | -32.48913 | -61.61670 | 30021 ft | 420 kts | 295° |
| 2026-05-03 22:09 | -32.45916 | -61.67621 | 30017 ft | 418 kts | 295° |
| 2026-05-03 22:10 | -32.41532 | -61.76304 | 30015 ft | 408 kts | 295° |
| 2026-05-03 22:10 | -32.38630 | -61.82052 | 30023 ft | 409 kts | 295° |
| 2026-05-03 22:11 | -32.35694 | -61.87854 | 30020 ft | 411 kts | 295° |
| 2026-05-03 22:11 | -32.32746 | -61.93664 | 30021 ft | 412 kts | 295° |
| 2026-05-03 22:12 | -32.29806 | -61.99436 | 30029 ft | 412 kts | 295° |
| 2026-05-03 22:12 | -32.26839 | -62.05257 | 30012 ft | 412 kts | 295° |
| 2026-05-03 22:13 | -32.23873 | -62.11066 | 30006 ft | 412 kts | 295° |
| 2026-05-03 22:13 | -32.20933 | -62.16817 | 30016 ft | 410 kts | 295° |
| 2026-05-03 22:14 | -32.17980 | -62.22586 | 30012 ft | 410 kts | 296° |
| 2026-05-03 22:14 | -32.15028 | -62.28344 | 30014 ft | 409 kts | 296° |
| 2026-05-03 22:15 | -32.12097 | -62.34054 | 30021 ft | 409 kts | 296° |
| 2026-05-03 22:15 | -32.09178 | -62.39723 | 29999 ft | 394 kts | 296° |
| 2026-05-03 22:16 | -32.06345 | -62.45217 | 30016 ft | 390 kts | 295° |
| 2026-05-03 22:16 | -32.03281 | -62.50497 | 30006 ft | 402 kts | 311° |
| 2026-05-03 22:16 | -32.00973 | -62.52468 | 29767 ft | 415 kts | 323° |
| 2026-05-03 22:17 | -31.98433 | -62.54116 | 29262 ft | 415 kts | 326° |
| 2026-05-03 22:17 | -31.95866 | -62.55668 | 28754 ft | 413 kts | 327° |
| 2026-05-03 22:17 | -31.93298 | -62.57192 | 28208 ft | 412 kts | 327° |
| 2026-05-03 22:17 | -31.90743 | -62.58701 | 27666 ft | 409 kts | 327° |
| 2026-05-03 22:18 | -31.88208 | -62.60197 | 27242 ft | 416 kts | 327° |
| 2026-05-03 22:18 | -31.85593 | -62.61751 | 26836 ft | 423 kts | 327° |
| 2026-05-03 22:18 | -31.82959 | -62.63324 | 26448 ft | 425 kts | 327° |
| 2026-05-03 22:18 | -31.80316 | -62.64909 | 26062 ft | 425 kts | 327° |
| 2026-05-03 22:19 | -31.77683 | -62.66490 | 25692 ft | 421 kts | 327° |
| 2026-05-03 22:19 | -31.75115 | -62.68035 | 25354 ft | 419 kts | 327° |
| 2026-05-03 22:19 | -31.72514 | -62.69603 | 25027 ft | 419 kts | 327° |
| 2026-05-03 22:19 | -31.69928 | -62.71167 | 24720 ft | 417 kts | 327° |
| 2026-05-03 22:20 | -31.67349 | -62.72729 | 24435 ft | 415 kts | 327° |
| 2026-05-03 22:20 | -31.64781 | -62.74287 | 24173 ft | 412 kts | 327° |
| 2026-05-03 22:20 | -31.62267 | -62.75816 | 23944 ft | 410 kts | 327° |
| 2026-05-03 22:20 | -31.59745 | -62.77386 | 23725 ft | 409 kts | 322° |
| 2026-05-03 22:21 | -31.57612 | -62.79517 | 23463 ft | 397 kts | 304° |
| 2026-05-03 22:21 | -31.56241 | -62.82261 | 23205 ft | 385 kts | 286° |
| 2026-05-03 22:21 | -31.55752 | -62.85263 | 22939 ft | 377 kts | 268° |
| 2026-05-03 22:21 | -31.56134 | -62.88287 | 22553 ft | 375 kts | 252° |
| 2026-05-03 22:22 | -31.57010 | -62.91169 | 22101 ft | 373 kts | 249° |
| 2026-05-03 22:22 | -31.57990 | -62.93985 | 21619 ft | 370 kts | 248° |
| 2026-05-03 22:22 | -31.58986 | -62.96756 | 21159 ft | 367 kts | 247° |
| 2026-05-03 22:22 | -31.59982 | -62.99503 | 20705 ft | 365 kts | 247° |
| 2026-05-03 22:23 | -31.60962 | -63.02203 | 20253 ft | 364 kts | 249° |
| 2026-05-03 22:23 | -31.61490 | -63.05087 | 19788 ft | 364 kts | 268° |
| 2026-05-03 22:23 | -31.61101 | -63.08017 | 19351 ft | 366 kts | 287° |
| 2026-05-03 22:23 | -31.59842 | -63.10625 | 18976 ft | 370 kts | 306° |
| 2026-05-03 22:24 | -31.57969 | -63.12693 | 18723 ft | 374 kts | 323° |
| 2026-05-03 22:24 | -31.55555 | -63.13920 | 18504 ft | 385 kts | 342° |
| 2026-05-03 22:24 | -31.52888 | -63.14389 | 18262 ft | 385 kts | 350° |
| 2026-05-03 22:24 | -31.50259 | -63.14643 | 17806 ft | 384 kts | 352° |
| 2026-05-03 22:25 | -31.47593 | -63.14862 | 17238 ft | 382 kts | 352° |
| 2026-05-03 22:25 | -31.44938 | -63.15076 | 16751 ft | 380 kts | 352° |
| 2026-05-03 22:25 | -31.42314 | -63.15289 | 16501 ft | 373 kts | 352° |
| 2026-05-03 22:25 | -31.39774 | -63.15495 | 16252 ft | 368 kts | 352° |
| 2026-05-03 22:26 | -31.37197 | -63.15710 | 16017 ft | 373 kts | 352° |
| 2026-05-03 22:26 | -31.34590 | -63.15934 | 15775 ft | 376 kts | 352° |
| 2026-05-03 22:26 | -31.31987 | -63.16164 | 15524 ft | 374 kts | 352° |
| 2026-05-03 22:26 | -31.29402 | -63.16395 | 15293 ft | 371 kts | 352° |
| 2026-05-03 22:27 | -31.26833 | -63.16629 | 15061 ft | 369 kts | 352° |
| 2026-05-03 22:27 | -31.24274 | -63.16866 | 14821 ft | 367 kts | 352° |
| 2026-05-03 22:27 | -31.21736 | -63.17104 | 14587 ft | 366 kts | 352° |
| 2026-05-03 22:27 | -31.19194 | -63.17347 | 14356 ft | 364 kts | 352° |
| 2026-05-03 22:28 | -31.16697 | -63.17588 | 14128 ft | 363 kts | 352° |
| 2026-05-03 22:28 | -31.14174 | -63.17836 | 13897 ft | 362 kts | 352° |
| 2026-05-03 22:28 | -31.11669 | -63.18087 | 13652 ft | 361 kts | 352° |
| 2026-05-03 22:28 | -31.09158 | -63.17986 | 13372 ft | 365 kts | 9° |
| 2026-05-03 22:29 | -31.06696 | -63.17181 | 13146 ft | 366 kts | 15° |
| 2026-05-03 22:29 | -31.04285 | -63.16234 | 12892 ft | 365 kts | 17° |
| 2026-05-03 22:29 | -31.01885 | -63.15262 | 12639 ft | 364 kts | 17° |
| 2026-05-03 22:29 | -30.99522 | -63.14301 | 12386 ft | 363 kts | 17° |
| 2026-05-03 22:30 | -30.97139 | -63.13332 | 12147 ft | 359 kts | 17° |
| 2026-05-03 22:30 | -30.94804 | -63.12384 | 12043 ft | 350 kts | 17° |
| 2026-05-03 22:30 | -30.92527 | -63.11460 | 12018 ft | 342 kts | 17° |
| 2026-05-03 22:30 | -30.90270 | -63.10546 | 12026 ft | 343 kts | 17° |
| 2026-05-03 22:31 | -30.88029 | -63.09643 | 12030 ft | 347 kts | 16° |
| 2026-05-03 22:31 | -30.85672 | -63.09181 | 12013 ft | 340 kts | 355° |
| 2026-05-03 22:31 | -30.83391 | -63.09746 | 12029 ft | 334 kts | 336° |
| 2026-05-03 22:31 | -30.81258 | -63.10816 | 12019 ft | 333 kts | 333° |
| 2026-05-03 22:32 | -30.79156 | -63.11970 | 12017 ft | 333 kts | 332° |
| 2026-05-03 22:32 | -30.77066 | -63.13137 | 12011 ft | 333 kts | 332° |
| 2026-05-03 22:32 | -30.74974 | -63.14311 | 12016 ft | 333 kts | 332° |
| 2026-05-03 22:32 | -30.72885 | -63.15484 | 12016 ft | 334 kts | 332° |
| 2026-05-03 22:33 | -30.70822 | -63.16644 | 12014 ft | 334 kts | 332° |
| 2026-05-03 22:33 | -30.68723 | -63.17826 | 12015 ft | 334 kts | 332° |
| 2026-05-03 22:33 | -30.66625 | -63.19008 | 12016 ft | 334 kts | 332° |
| 2026-05-03 22:33 | -30.64525 | -63.20189 | 12013 ft | 335 kts | 332° |
| 2026-05-03 22:34 | -30.62429 | -63.21369 | 12014 ft | 335 kts | 332° |
| 2026-05-03 22:34 | -30.60328 | -63.22552 | 12012 ft | 335 kts | 332° |
| 2026-05-03 22:34 | -30.58256 | -63.23718 | 12014 ft | 335 kts | 332° |
| 2026-05-03 22:34 | -30.56167 | -63.24892 | 12001 ft | 327 kts | 332° |
| 2026-05-03 22:35 | -30.54147 | -63.26025 | 12000 ft | 319 kts | 332° |
| 2026-05-03 22:35 | -30.52142 | -63.27146 | 12011 ft | 320 kts | 332° |
| 2026-05-03 22:35 | -30.50124 | -63.28275 | 12025 ft | 323 kts | 332° |
| 2026-05-03 22:35 | -30.48089 | -63.29414 | 12023 ft | 325 kts | 332° |
| 2026-05-03 22:36 | -30.46069 | -63.30546 | 12018 ft | 326 kts | 332° |
| 2026-05-03 22:36 | -30.44016 | -63.31697 | 12014 ft | 327 kts | 332° |
| 2026-05-03 22:36 | -30.41961 | -63.32850 | 12011 ft | 327 kts | 332° |
| 2026-05-03 22:36 | -30.39912 | -63.33999 | 12010 ft | 326 kts | 332° |
| 2026-05-03 22:37 | -30.37891 | -63.35131 | 12011 ft | 325 kts | 332° |
| 2026-05-03 22:37 | -30.35857 | -63.36271 | 12009 ft | 324 kts | 332° |
| 2026-05-03 22:37 | -30.33828 | -63.37407 | 12010 ft | 323 kts | 332° |
| 2026-05-03 22:37 | -30.31898 | -63.38713 | 11999 ft | 319 kts | 316° |
| 2026-05-03 22:38 | -30.30568 | -63.40683 | 12015 ft | 314 kts | 294° |
| 2026-05-03 22:38 | -30.30033 | -63.43113 | 12022 ft | 312 kts | 273° |
| 2026-05-03 22:38 | -30.30024 | -63.45624 | 12017 ft | 312 kts | 268° |
| 2026-05-03 22:38 | -30.30107 | -63.48143 | 12011 ft | 313 kts | 267° |
| 2026-05-03 22:39 | -30.30208 | -63.50664 | 12011 ft | 314 kts | 267° |
| 2026-05-03 22:39 | -30.30341 | -63.53190 | 12007 ft | 314 kts | 262° |
| 2026-05-03 22:39 | -30.31029 | -63.55546 | 12015 ft | 315 kts | 240° |
| 2026-05-03 22:39 | -30.32295 | -63.57625 | 12021 ft | 316 kts | 233° |
| 2026-05-03 22:40 | -30.33665 | -63.59623 | 12013 ft | 317 kts | 232° |
| 2026-05-03 22:40 | -30.35053 | -63.61607 | 12012 ft | 317 kts | 232° |
| 2026-05-03 22:40 | -30.36446 | -63.63588 | 12011 ft | 317 kts | 232° |
| 2026-05-03 22:40 | -30.37838 | -63.65563 | 12014 ft | 317 kts | 232° |
| 2026-05-03 22:41 | -30.39233 | -63.67540 | 12016 ft | 316 kts | 232° |
| 2026-05-03 22:41 | -30.40607 | -63.69490 | 12015 ft | 316 kts | 232° |
| 2026-05-03 22:41 | -30.41997 | -63.71462 | 12014 ft | 316 kts | 232° |
| 2026-05-03 22:41 | -30.43392 | -63.73442 | 12016 ft | 316 kts | 232° |
| 2026-05-03 22:42 | -30.44786 | -63.75421 | 12016 ft | 316 kts | 232° |
| 2026-05-03 22:42 | -30.46163 | -63.77377 | 12017 ft | 316 kts | 232° |
| 2026-05-03 22:42 | -30.47556 | -63.79358 | 12021 ft | 316 kts | 232° |
| 2026-05-03 22:42 | -30.48949 | -63.81340 | 12018 ft | 316 kts | 232° |
| 2026-05-03 22:43 | -30.50343 | -63.83326 | 12019 ft | 316 kts | 232° |
| 2026-05-03 22:43 | -30.51712 | -63.85277 | 12019 ft | 316 kts | 232° |
| 2026-05-03 22:43 | -30.53104 | -63.87262 | 12017 ft | 316 kts | 232° |
| 2026-05-03 22:43 | -30.54497 | -63.89249 | 12018 ft | 316 kts | 232° |
| 2026-05-03 22:44 | -30.55889 | -63.91236 | 12016 ft | 317 kts | 232° |
| 2026-05-03 22:44 | -30.57278 | -63.93222 | 12014 ft | 317 kts | 232° |
| 2026-05-03 22:44 | -30.58651 | -63.95186 | 12016 ft | 317 kts | 232° |
| 2026-05-03 22:44 | -30.60041 | -63.97177 | 12015 ft | 317 kts | 232° |
| 2026-05-03 22:45 | -30.61429 | -63.99167 | 12015 ft | 317 kts | 232° |
| 2026-05-03 22:45 | -30.62814 | -64.01156 | 12016 ft | 317 kts | 232° |
| 2026-05-03 22:45 | -30.64201 | -64.03150 | 12016 ft | 316 kts | 232° |
| 2026-05-03 22:45 | -30.65570 | -64.05118 | 12018 ft | 316 kts | 232° |
| 2026-05-03 22:46 | -30.66956 | -64.07113 | 12018 ft | 317 kts | 232° |
| 2026-05-03 22:46 | -30.68339 | -64.09106 | 12013 ft | 317 kts | 232° |
| 2026-05-03 22:46 | -30.69722 | -64.11101 | 12017 ft | 317 kts | 232° |
| 2026-05-03 22:46 | -30.71106 | -64.13099 | 12016 ft | 317 kts | 232° |
| 2026-05-03 22:47 | -30.72487 | -64.15096 | 12016 ft | 317 kts | 232° |
| 2026-05-03 22:47 | -30.73869 | -64.17094 | 12017 ft | 317 kts | 232° |
| 2026-05-03 22:47 | -30.75236 | -64.19073 | 12019 ft | 317 kts | 232° |
| 2026-05-03 22:47 | -30.76620 | -64.21079 | 12019 ft | 318 kts | 233° |
| 2026-05-03 22:48 | -30.78009 | -64.23094 | 12018 ft | 318 kts | 233° |
| 2026-05-03 22:48 | -30.79394 | -64.25104 | 12013 ft | 318 kts | 233° |
| 2026-05-03 22:48 | -30.80779 | -64.27117 | 12013 ft | 318 kts | 233° |
| 2026-05-03 22:48 | -30.82164 | -64.29133 | 12014 ft | 318 kts | 233° |
| 2026-05-03 22:49 | -30.83546 | -64.31145 | 12016 ft | 318 kts | 233° |
| 2026-05-03 22:49 | -30.84914 | -64.33137 | 12009 ft | 318 kts | 233° |
| 2026-05-03 22:49 | -30.85848 | -64.34498 | 12011 ft | 318 kts | 233° |
| 2026-05-03 22:49 | -30.87678 | -64.37169 | 12004 ft | 318 kts | 233° |
| 2026-05-03 22:50 | -30.89057 | -64.39186 | 12014 ft | 318 kts | 233° |
| 2026-05-03 22:50 | -30.90433 | -64.41202 | 12004 ft | 318 kts | 233° |
| 2026-05-03 22:50 | -30.91810 | -64.43216 | 12002 ft | 317 kts | 233° |
| 2026-05-03 22:50 | -30.93171 | -64.45208 | 12011 ft | 317 kts | 233° |
| 2026-05-03 22:51 | -30.94547 | -64.47226 | 12011 ft | 318 kts | 233° |
| 2026-05-03 22:51 | -30.95927 | -64.49253 | 12004 ft | 319 kts | 233° |
| 2026-05-03 22:51 | -30.97308 | -64.51285 | 12007 ft | 319 kts | 233° |
| 2026-05-03 22:51 | -30.98222 | -64.52632 | 12003 ft | 319 kts | 233° |
| 2026-05-03 22:52 | -30.99606 | -64.54671 | 12003 ft | 319 kts | 233° |
| 2026-05-03 22:52 | -31.00966 | -64.56680 | 12002 ft | 319 kts | 233° |
| 2026-05-03 22:52 | -31.02365 | -64.58704 | 12004 ft | 320 kts | 228° |
| 2026-05-03 22:52 | -31.04176 | -64.60215 | 11999 ft | 324 kts | 205° |
| 2026-05-03 22:53 | -31.06380 | -64.60811 | 12016 ft | 327 kts | 187° |
| 2026-05-03 22:53 | -31.08633 | -64.60961 | 12001 ft | 328 kts | 184° |
| 2026-05-03 22:53 | -31.10919 | -64.61043 | 11997 ft | 328 kts | 184° |
| 2026-05-03 22:53 | -31.13207 | -64.61114 | 11994 ft | 328 kts | 183° |
| 2026-05-03 22:54 | -31.15485 | -64.61180 | 11931 ft | 326 kts | 183° |
| 2026-05-03 22:54 | -31.17736 | -64.61242 | 11738 ft | 319 kts | 183° |
| 2026-05-03 22:54 | -31.19938 | -64.61302 | 11505 ft | 313 kts | 183° |
| 2026-05-03 22:54 | -31.22098 | -64.61362 | 11280 ft | 307 kts | 183° |
| 2026-05-03 22:55 | -31.24192 | -64.61421 | 11069 ft | 302 kts | 183° |
| 2026-05-03 22:55 | -31.26286 | -64.61483 | 10808 ft | 301 kts | 183° |
| 2026-05-03 22:55 | -31.28380 | -64.61550 | 10519 ft | 300 kts | 183° |
| 2026-05-03 22:55 | -31.30468 | -64.61623 | 10236 ft | 299 kts | 183° |
| 2026-05-03 22:56 | -31.32544 | -64.61699 | 10043 ft | 298 kts | 183° |
| 2026-05-03 22:56 | -31.34605 | -64.61779 | 10014 ft | 300 kts | 183° |
| 2026-05-03 22:56 | -31.36688 | -64.61861 | 9996 ft | 297 kts | 183° |
| 2026-05-03 22:56 | -31.38752 | -64.61946 | 9990 ft | 297 kts | 183° |
| 2026-05-03 22:57 | -31.40823 | -64.62033 | 9970 ft | 298 kts | 182° |
| 2026-05-03 22:57 | -31.42886 | -64.61702 | 9716 ft | 303 kts | 161° |
| 2026-05-03 22:57 | -31.44834 | -64.60702 | 9379 ft | 306 kts | 155° |
| 2026-05-03 22:57 | -31.46744 | -64.59593 | 9010 ft | 305 kts | 154° |
| 2026-05-03 22:58 | -31.48615 | -64.58491 | 8662 ft | 303 kts | 154° |
| 2026-05-03 22:58 | -31.50501 | -64.57375 | 8333 ft | 301 kts | 153° |
| 2026-05-03 22:58 | -31.52360 | -64.56275 | 8067 ft | 297 kts | 153° |
| 2026-05-03 22:58 | -31.54208 | -64.55181 | 7722 ft | 296 kts | 153° |
| 2026-05-03 22:59 | -31.56032 | -64.54101 | 7389 ft | 296 kts | 153° |
| 2026-05-03 22:59 | -31.57882 | -64.53007 | 7049 ft | 297 kts | 153° |
| 2026-05-03 22:59 | -31.59617 | -64.51772 | 6697 ft | 297 kts | 137° |
| 2026-05-03 22:59 | -31.60801 | -64.49836 | 6355 ft | 294 kts | 111° |
| 2026-05-03 23:00 | -31.61246 | -64.47522 | 6063 ft | 289 kts | 96° |
| 2026-05-03 23:00 | -31.61445 | -64.45222 | 5987 ft | 278 kts | 94° |
| 2026-05-03 23:00 | -31.61599 | -64.43141 | 5986 ft | 275 kts | 94° |
| 2026-05-03 23:00 | -31.61762 | -64.40894 | 5987 ft | 277 kts | 94° |
| 2026-05-03 23:01 | -31.61919 | -64.38665 | 5998 ft | 278 kts | 93° |
| 2026-05-03 23:01 | -31.62078 | -64.36399 | 5978 ft | 277 kts | 94° |
| 2026-05-03 23:01 | -31.62234 | -64.34144 | 5985 ft | 276 kts | 93° |
| 2026-05-03 23:01 | -31.62389 | -64.31913 | 5992 ft | 276 kts | 94° |
| 2026-05-03 23:02 | -31.62545 | -64.29666 | 5996 ft | 277 kts | 93° |
| 2026-05-03 23:02 | -31.62700 | -64.27408 | 6003 ft | 277 kts | 93° |
| 2026-05-03 23:02 | -31.62853 | -64.25146 | 6000 ft | 277 kts | 92° |
| 2026-05-03 23:02 | -31.62804 | -64.22887 | 6000 ft | 276 kts | 84° |
| 2026-05-03 23:03 | -31.62642 | -64.20668 | 5997 ft | 276 kts | 83° |
| 2026-05-03 23:03 | -31.62463 | -64.18421 | 5999 ft | 276 kts | 83° |
| 2026-05-03 23:03 | -31.62278 | -64.16167 | 5998 ft | 276 kts | 83° |
| 2026-05-03 23:03 | -31.62088 | -64.13920 | 5991 ft | 276 kts | 83° |
| 2026-05-03 23:04 | -31.61894 | -64.11654 | 5735 ft | 282 kts | 83° |
| 2026-05-03 23:04 | -31.61700 | -64.09396 | 5491 ft | 280 kts | 83° |
| 2026-05-03 23:04 | -31.61506 | -64.07141 | 5237 ft | 275 kts | 83° |
| 2026-05-03 23:04 | -31.61314 | -64.04915 | 5062 ft | 271 kts | 83° |
| 2026-05-03 23:05 | -31.61123 | -64.02713 | 5016 ft | 271 kts | 83° |
| 2026-05-03 23:05 | -31.60931 | -64.00518 | 5008 ft | 270 kts | 83° |
| 2026-05-03 23:05 | -31.60417 | -63.98423 | 4998 ft | 268 kts | 58° |
| 2026-05-03 23:05 | -31.59099 | -63.96932 | 4998 ft | 266 kts | 24° |
| 2026-05-03 23:06 | -31.57325 | -63.96599 | 5015 ft | 265 kts | 350° |
| 2026-05-03 23:06 | -31.55649 | -63.97463 | 5023 ft | 267 kts | 326° |
| 2026-05-03 23:06 | -31.54109 | -63.98690 | 5010 ft | 268 kts | 327° |
| 2026-05-03 23:06 | -31.52505 | -63.99825 | 5005 ft | 269 kts | 331° |
| 2026-05-03 23:07 | -31.50847 | -64.00848 | 4992 ft | 269 kts | 334° |
| 2026-05-03 23:07 | -31.49171 | -64.01798 | 4982 ft | 265 kts | 335° |
| 2026-05-03 23:07 | -31.47531 | -64.02696 | 4978 ft | 252 kts | 335° |
| 2026-05-03 23:07 | -31.45980 | -64.03535 | 4981 ft | 238 kts | 335° |
| 2026-05-03 23:08 | -31.44581 | -64.04428 | 4972 ft | 225 kts | 318° |
| 2026-05-03 23:08 | -31.43701 | -64.05930 | 4810 ft | 231 kts | 290° |
| 2026-05-03 23:08 | -31.43437 | -64.07782 | 4557 ft | 230 kts | 273° |
| 2026-05-03 23:08 | -31.43433 | -64.09622 | 4305 ft | 219 kts | 270° |
| 2026-05-03 23:09 | -31.43454 | -64.11351 | 4125 ft | 204 kts | 271° |
| 2026-05-03 23:09 | -31.43467 | -64.12954 | 3983 ft | 194 kts | 271° |
| 2026-05-03 23:09 | -31.43473 | -64.14539 | 3857 ft | 195 kts | 271° |
| 2026-05-03 23:09 | -31.43324 | -64.16089 | 3714 ft | 189 kts | 296° |
| 2026-05-03 23:10 | -31.42475 | -64.17155 | 3614 ft | 176 kts | 328° |
| 2026-05-03 23:10 | -31.41432 | -64.17907 | 3376 ft | 173 kts | 331° |
| 2026-05-03 23:10 | -31.40440 | -64.18591 | 3163 ft | 161 kts | 332° |
| 2026-05-03 23:10 | -31.39529 | -64.19220 | 2972 ft | 142 kts | 332° |
| 2026-05-03 23:11 | -31.38686 | -64.19802 | 2801 ft | 141 kts | 332° |
| 2026-05-03 23:11 | -31.37845 | -64.20380 | 2633 ft | 138 kts | 332° |
| 2026-05-03 23:11 | -31.36943 | -64.20717 | 2404 ft | 142 kts | 354° |
| 2026-05-03 23:11 | -31.35938 | -64.20762 | 2299 ft | 142 kts | 2° |
| 2026-05-03 23:12 | -31.34972 | -64.20775 | 2160 ft | 138 kts | 0° |
| 2026-05-03 23:12 | -31.34015 | -64.20790 | 1945 ft | 135 kts | 0° |
| 2026-05-03 23:12 | -31.33069 | -64.20810 | 1715 ft | 137 kts | 1° |
| 2026-05-03 23:12 | -31.32114 | -64.20819 | 1560 ft | 131 kts | 360° |
| 2026-05-03 23:13 | -31.31556 | -64.20827 | 1562 ft | 25 kts | 360° |
| 2026-05-03 23:13 | -31.31469 | -64.20872 | 1561 ft | 10 kts | 291° |
| 2026-05-03 23:13 | -31.31466 | -64.20935 | 1561 ft | 4 kts | 270° |
| 2026-05-03 23:13 | -31.31466 | -64.20958 | 1560 ft | 2 kts | 270° |
| 2026-05-03 23:14 | -31.31466 | -64.20960 | 1560 ft | 0 kts | 270° |
| 2026-05-03 23:14 | -31.31466 | -64.20961 | 1560 ft | 1 kts | 270° |
| 2026-05-03 23:15 | -31.31467 | -64.20987 | 1560 ft | 5 kts | 265° |
| 2026-05-03 23:15 | -31.31477 | -64.21036 | 1560 ft | 7 kts | 242° |
| 2026-05-03 23:15 | -31.31513 | -64.21071 | 1560 ft | 6 kts | 206° |
| 2026-05-03 23:15 | -31.31546 | -64.21084 | 1560 ft | 3 kts | 206° |
| 2026-05-03 23:16 | -31.31561 | -64.21095 | 1560 ft | 3 kts | 217° |
| 2026-05-03 23:16 | -31.31570 | -64.21114 | 1560 ft | 3 kts | 248° |
| 2026-05-03 23:16 | -31.31575 | -64.21135 | 1560 ft | 3 kts | 253° |
| 2026-05-03 23:16 | -31.31579 | -64.21152 | 1560 ft | 1 kts | 254° |
| 2026-05-03 23:17 | -31.31580 | -64.21155 | 1560 ft | 0 kts | 254° |